Time,TemperatureF,DewpointF,PressureIn,WindDirection,WindDirectionDegrees,WindSpeedMPH,WindSpeedGustMPH,Humidity,HourlyPrecipIn,Conditions,Clouds,dailyrainin,SoftwareType,DateUTC
2013-02-09 17:06:00,36.3,29.5,29.32,WSW,242,2.7,2.7,76,0.00,,,0.00,VWS V14.01,2013-02-09 22:06:00,
2013-02-09 17:07:00,36.3,29.5,29.32,WNW,287,3.1,3.1,76,1.65,,,0.00,VWS V14.01,2013-02-09 22:07:00,
2013-02-09 17:11:00,36.0,29.1,29.32,SW,222,4.0,5.4,76,0.00,,,0.00,VWS V14.01,2013-02-09 22:11:00,
2013-02-09 17:12:00,36.0,29.1,29.32,SW,222,3.1,5.4,76,0.00,,,0.00,VWS V14.01,2013-02-09 22:12:00,
2013-02-09 17:16:00,35.8,29.0,29.32,SW,229,5.4,5.4,76,0.00,,,0.00,VWS V14.01,2013-02-09 22:16:00,
2013-02-09 17:17:00,35.8,29.0,29.32,SW,229,5.4,5.4,76,0.00,,,0.00,VWS V14.01,2013-02-09 22:17:00,
2013-02-09 17:22:00,36.1,29.3,29.32,SW,221,4.0,5.4,76,0.00,,,0.00,VWS V14.01,2013-02-09 22:22:00,
2013-02-09 17:27:00,36.5,29.7,29.32,SW,221,3.1,5.4,76,0.00,,,0.00,VWS V14.01,2013-02-09 22:27:00,
2013-02-09 17:32:00,36.9,30.0,29.32,SW,227,3.6,4.5,76,0.00,,,0.00,VWS V14.01,2013-02-09 22:32:00,
2013-02-09 17:33:00,37.0,30.2,29.32,SSW,202,4.9,4.9,76,0.00,,,0.00,VWS V14.01,2013-02-09 22:33:00,
2013-02-09 17:37:00,37.4,30.5,29.32,SW,220,4.0,4.0,76,0.00,,,0.00,VWS V14.01,2013-02-09 22:37:00,
2013-02-09 17:38:00,37.4,30.5,29.32,WSW,256,2.2,4.0,76,0.00,,,0.00,VWS V14.01,2013-02-09 22:38:00,
2013-02-09 17:42:00,37.6,30.7,29.32,SW,224,3.6,4.0,76,0.00,,,0.00,VWS V14.01,2013-02-09 22:42:00,
2013-02-09 17:43:00,37.6,30.7,29.32,West,272,4.9,5.8,76,0.00,,,0.00,VWS V14.01,2013-02-09 22:43:00,
2013-02-09 17:47:00,37.6,30.7,29.32,SW,231,3.1,3.1,76,0.00,,,0.00,VWS V14.01,2013-02-09 22:47:00,
2013-02-09 17:48:00,37.6,30.7,29.32,SW,222,4.0,5.4,76,0.00,,,0.00,VWS V14.01,2013-02-09 22:48:00,
2013-02-09 17:52:00,37.4,30.5,29.32,SW,227,6.3,6.3,76,0.00,,,0.00,VWS V14.01,2013-02-09 22:52:00,
2013-02-09 17:53:00,37.4,30.5,29.32,SW,222,6.3,6.3,76,0.00,,,0.00,VWS V14.01,2013-02-09 22:53:00,
2013-02-09 17:57:00,36.9,30.0,29.32,SW,236,4.0,5.4,76,0.00,,,0.00,VWS V14.01,2013-02-09 22:57:00,
2013-02-09 17:58:00,36.9,30.0,29.32,SW,236,4.0,5.4,76,0.00,,,0.00,VWS V14.01,2013-02-09 22:58:00,
2013-02-09 18:02:00,36.0,29.1,29.32,SW,232,3.6,3.6,76,0.00,,,0.00,VWS V14.01,2013-02-09 23:02:00,
2013-02-09 18:03:00,36.0,29.1,29.32,SW,232,3.1,3.6,76,0.00,,,0.00,VWS V14.01,2013-02-09 23:03:00,
2013-02-09 18:07:00,35.2,28.5,29.32,SW,235,2.7,4.0,76,0.00,,,0.00,VWS V14.01,2013-02-09 23:07:00,
2013-02-09 18:08:00,35.2,28.5,29.32,SW,235,2.7,4.0,76,0.00,,,0.00,VWS V14.01,2013-02-09 23:08:00,
2013-02-09 18:13:00,34.3,27.6,29.32,WSW,238,4.0,4.0,76,0.00,,,0.00,VWS V14.01,2013-02-09 23:13:00,
2013-02-09 18:18:00,33.6,27.2,29.32,SW,222,4.9,5.4,77,0.00,,,0.00,VWS V14.01,2013-02-09 23:18:00,
2013-02-09 18:23:00,32.9,26.5,29.32,SW,228,5.4,5.8,77,0.00,,,0.00,VWS V14.01,2013-02-09 23:23:00,
2013-02-09 18:24:00,32.7,26.3,29.32,SW,223,4.9,5.8,77,0.00,,,0.00,VWS V14.01,2013-02-09 23:24:00,
2013-02-09 18:28:00,32.4,26.0,29.32,SW,216,3.6,4.0,77,0.00,,,0.00,VWS V14.01,2013-02-09 23:28:00,
2013-02-09 18:29:00,32.4,26.0,29.32,SW,222,5.4,5.4,77,0.00,,,0.00,VWS V14.01,2013-02-09 23:29:00,
2013-02-09 18:33:00,31.8,25.4,29.32,SW,227,4.5,4.5,77,0.00,,,0.00,VWS V14.01,2013-02-09 23:33:00,
2013-02-09 18:34:00,31.8,25.4,29.32,SW,225,3.6,4.5,77,0.00,,,0.00,VWS V14.01,2013-02-09 23:34:00,
2013-02-09 18:38:00,31.5,25.1,29.32,WSW,241,4.0,4.0,77,0.00,,,0.00,VWS V14.01,2013-02-09 23:38:00,
2013-02-09 18:39:00,31.3,24.9,29.32,SW,216,4.9,4.9,77,0.00,,,0.00,VWS V14.01,2013-02-09 23:39:00,
2013-02-09 18:43:00,31.1,24.8,29.32,WSW,237,2.7,3.6,77,0.00,,,0.00,VWS V14.01,2013-02-09 23:43:00,
2013-02-09 18:44:00,31.1,25.0,29.32,WSW,244,4.9,4.9,78,0.00,,,0.00,VWS V14.01,2013-02-09 23:44:00,
2013-02-09 18:48:00,30.7,24.7,29.32,SW,225,4.9,4.9,78,0.00,,,0.00,VWS V14.01,2013-02-09 23:48:00,
2013-02-09 18:49:00,30.7,24.7,29.32,SW,225,3.1,4.9,78,0.00,,,0.00,VWS V14.01,2013-02-09 23:49:00,
2013-02-09 18:53:00,30.6,24.5,29.32,SW,224,4.0,4.0,78,0.00,,,0.00,VWS V14.01,2013-02-09 23:53:00,
2013-02-09 18:54:00,30.6,24.5,29.32,SW,227,4.0,4.0,78,0.00,,,0.00,VWS V14.01,2013-02-09 23:54:00,
2013-02-09 18:58:00,30.4,24.4,29.32,SW,222,5.8,5.8,78,0.00,,,0.00,VWS V14.01,2013-02-09 23:58:00,
2013-02-09 18:59:00,30.4,24.4,29.32,SW,222,5.8,5.8,78,0.00,,,0.00,VWS V14.01,2013-02-09 23:59:00,
2013-02-09 19:03:00,30.2,24.5,29.32,SW,229,2.7,3.1,79,0.00,,,0.00,VWS V14.01,2013-02-10 00:03:00,
2013-02-09 19:04:00,30.2,24.5,29.32,SW,229,2.7,3.1,79,0.00,,,0.00,VWS V14.01,2013-02-10 00:04:00,
2013-02-09 19:08:00,30.0,24.3,29.32,SW,236,4.0,4.9,79,0.00,,,0.00,VWS V14.01,2013-02-10 00:08:00,
2013-02-09 19:09:00,30.0,24.3,29.32,SW,236,3.6,4.9,79,0.00,,,0.00,VWS V14.01,2013-02-10 00:09:00,
2013-02-09 19:13:00,30.0,24.3,29.32,SW,234,2.7,3.6,79,0.00,,,0.00,VWS V14.01,2013-02-10 00:13:00,
2013-02-09 19:14:00,30.0,24.3,29.32,SW,234,4.0,4.0,79,0.00,,,0.00,VWS V14.01,2013-02-10 00:14:00,
2013-02-09 19:15:00,29.8,24.1,29.32,SW,234,3.1,4.0,79,0.00,,,0.00,VWS V14.01,2013-02-10 00:15:00,
2013-02-09 19:19:00,29.8,24.1,29.32,WSW,240,3.6,4.0,79,0.00,,,0.00,VWS V14.01,2013-02-10 00:19:00,
2013-02-09 19:20:00,29.8,24.1,29.32,WSW,240,3.6,3.6,79,0.00,,,0.00,VWS V14.01,2013-02-10 00:20:00,
2013-02-09 19:24:00,29.7,24.3,29.29,SW,227,3.1,3.6,80,0.00,,,0.00,VWS V14.01,2013-02-10 00:24:00,
2013-02-09 19:25:00,29.7,24.3,29.29,SW,227,3.6,3.6,80,0.00,,,0.00,VWS V14.01,2013-02-10 00:25:00,
2013-02-09 19:29:00,29.8,24.4,29.29,WSW,240,3.6,3.6,80,0.00,,,0.00,VWS V14.01,2013-02-10 00:29:00,
2013-02-09 19:30:00,29.8,24.4,29.29,SW,235,4.0,4.9,80,0.00,,,0.00,VWS V14.01,2013-02-10 00:30:00,
2013-02-09 19:34:00,29.8,24.4,29.29,SW,231,3.6,5.4,80,0.00,,,0.00,VWS V14.01,2013-02-10 00:34:00,
2013-02-09 19:35:00,29.8,24.4,29.29,WSW,245,3.6,4.9,80,0.00,,,0.00,VWS V14.01,2013-02-10 00:35:00,
2013-02-09 19:39:00,29.8,24.4,29.29,WSW,238,3.6,3.6,80,0.00,,,0.00,VWS V14.01,2013-02-10 00:39:00,
2013-02-09 19:40:00,29.8,24.4,29.29,SW,226,4.0,4.0,80,0.00,,,0.00,VWS V14.01,2013-02-10 00:40:00,
2013-02-09 19:44:00,29.8,24.7,29.29,SW,225,3.6,3.6,81,0.00,,,0.00,VWS V14.01,2013-02-10 00:44:00,
2013-02-09 19:45:00,29.8,24.7,29.29,SW,227,3.1,3.1,81,0.00,,,0.00,VWS V14.01,2013-02-10 00:45:00,
2013-02-09 19:50:00,29.7,24.6,29.32,SW,227,3.6,4.0,81,0.00,,,0.00,VWS V14.01,2013-02-10 00:50:00,
2013-02-09 19:55:00,29.7,24.6,29.32,WSW,256,2.7,3.1,81,0.00,,,0.00,VWS V14.01,2013-02-10 00:55:00,
2013-02-09 20:00:00,29.7,24.6,29.32,SW,235,2.7,2.7,81,0.00,,,0.00,VWS V14.01,2013-02-10 01:00:00,
2013-02-09 20:05:00,29.5,24.4,29.29,WSW,244,3.6,3.6,81,0.00,,,0.00,VWS V14.01,2013-02-10 01:05:00,
2013-02-09 20:10:00,29.3,24.5,29.29,SW,233,3.1,5.4,82,0.00,,,0.00,VWS V14.01,2013-02-10 01:10:00,
2013-02-09 20:15:00,29.1,24.3,29.29,WSW,248,3.6,4.9,82,0.00,,,0.00,VWS V14.01,2013-02-10 01:15:00,
2013-02-09 20:16:00,29.1,24.3,29.29,WSW,243,3.1,4.0,82,0.00,,,0.00,VWS V14.01,2013-02-10 01:16:00,
2013-02-09 20:20:00,29.1,24.3,29.29,SW,233,3.6,4.0,82,0.00,,,0.00,VWS V14.01,2013-02-10 01:20:00,
2013-02-09 20:21:00,29.1,24.3,29.29,SW,233,3.1,4.0,82,0.00,,,0.00,VWS V14.01,2013-02-10 01:21:00,
2013-02-09 20:25:00,29.1,24.3,29.29,SW,233,3.1,3.1,82,0.00,,,0.00,VWS V14.01,2013-02-10 01:25:00,
2013-02-09 20:26:00,29.1,24.3,29.29,SW,233,3.6,3.6,82,0.00,,,0.00,VWS V14.01,2013-02-10 01:26:00,
2013-02-09 20:30:00,28.9,24.4,29.29,SW,227,3.6,3.6,83,0.00,,,0.00,VWS V14.01,2013-02-10 01:30:00,
2013-02-09 20:31:00,28.9,24.4,29.29,SW,223,4.9,4.9,83,0.00,,,0.00,VWS V14.01,2013-02-10 01:31:00,
2013-02-09 20:35:00,28.9,24.4,29.29,SW,235,4.9,4.9,83,0.00,,,0.00,VWS V14.01,2013-02-10 01:35:00,
2013-02-09 20:36:00,28.9,24.4,29.29,SSW,209,3.6,4.9,83,0.00,,,0.00,VWS V14.01,2013-02-10 01:36:00,
2013-02-09 20:40:00,28.9,24.4,29.29,WSW,238,3.6,4.9,83,0.00,,,0.00,VWS V14.01,2013-02-10 01:40:00,
2013-02-09 20:41:00,28.9,24.4,29.29,SW,221,3.6,3.6,83,0.00,,,0.00,VWS V14.01,2013-02-10 01:41:00,
2013-02-09 20:45:00,29.1,24.9,29.29,SW,232,3.6,4.0,84,0.00,,,0.00,VWS V14.01,2013-02-10 01:45:00,
2013-02-09 20:46:00,29.1,24.9,29.29,SW,234,4.0,4.0,84,0.00,,,0.00,VWS V14.01,2013-02-10 01:46:00,
2013-02-09 20:51:00,29.1,24.9,29.29,SW,226,5.4,5.4,84,0.00,,,0.00,VWS V14.01,2013-02-10 01:51:00,
2013-02-09 20:52:00,29.1,24.9,29.29,WSW,240,3.6,4.0,84,0.00,,,0.00,VWS V14.01,2013-02-10 01:52:00,
2013-02-09 20:56:00,29.3,25.1,29.29,WSW,239,3.1,5.8,84,0.00,,,0.00,VWS V14.01,2013-02-10 01:56:00,
2013-02-09 20:57:00,29.1,24.9,29.29,SW,227,4.0,4.0,84,0.00,,,0.00,VWS V14.01,2013-02-10 01:57:00,
2013-02-09 21:01:00,29.3,25.1,29.29,SW,236,4.9,4.9,84,0.00,,,0.00,VWS V14.01,2013-02-10 02:01:00,
2013-02-09 21:02:00,29.3,25.4,29.29,SW,235,4.0,4.9,85,0.00,,,0.00,VWS V14.01,2013-02-10 02:02:00,
2013-02-09 21:06:00,29.3,25.4,29.29,West,260,3.6,5.8,85,0.00,,,0.00,VWS V14.01,2013-02-10 02:06:00,
2013-02-09 21:07:00,29.3,25.4,29.29,West,261,3.6,3.6,85,0.00,,,0.00,VWS V14.01,2013-02-10 02:07:00,
2013-02-09 21:08:00,29.3,25.4,29.29,SW,236,3.6,4.0,85,0.00,,,0.00,VWS V14.01,2013-02-10 02:08:00,
2013-02-09 21:11:00,29.3,25.4,29.29,SW,234,3.6,4.0,85,0.00,,,0.00,VWS V14.01,2013-02-10 02:11:00,
2013-02-09 21:12:00,29.3,25.4,29.29,WSW,237,3.6,4.0,85,0.00,,,0.00,VWS V14.01,2013-02-10 02:12:00,
2013-02-09 21:13:00,29.3,25.4,29.29,SW,236,3.6,3.6,85,0.00,,,0.00,VWS V14.01,2013-02-10 02:13:00,
2013-02-09 21:16:00,29.1,25.2,29.29,SW,235,5.4,7.6,85,0.00,,,0.00,VWS V14.01,2013-02-10 02:16:00,
2013-02-09 21:17:00,29.1,25.2,29.29,SW,236,3.6,5.4,85,0.00,,,0.00,VWS V14.01,2013-02-10 02:17:00,
2013-02-09 21:18:00,29.1,25.2,29.29,WSW,237,4.0,4.0,85,0.00,,,0.00,VWS V14.01,2013-02-10 02:18:00,
2013-02-09 21:21:00,29.1,25.2,29.29,West,265,5.8,8.1,85,0.00,,,0.00,VWS V14.01,2013-02-10 02:21:00,
2013-02-09 21:22:00,29.1,25.2,29.29,SW,234,6.3,6.3,85,0.00,,,0.00,VWS V14.01,2013-02-10 02:22:00,
2013-02-09 21:23:00,29.1,25.2,29.29,WSW,242,5.4,6.3,85,0.00,,,0.00,VWS V14.01,2013-02-10 02:23:00,
2013-02-09 21:26:00,29.1,25.2,29.29,WSW,254,4.0,4.0,85,0.00,,,0.00,VWS V14.01,2013-02-10 02:26:00,
2013-02-09 21:27:00,29.3,25.4,29.29,SW,233,4.9,4.9,85,0.00,,,0.00,VWS V14.01,2013-02-10 02:27:00,
2013-02-09 21:28:00,29.3,25.4,29.29,WSW,248,5.4,5.8,85,0.00,,,0.00,VWS V14.01,2013-02-10 02:28:00,
2013-02-09 21:31:00,29.3,25.4,29.29,SW,228,2.7,4.0,85,0.00,,,0.00,VWS V14.01,2013-02-10 02:31:00,
2013-02-09 21:32:00,29.3,25.4,29.29,SW,226,4.0,4.9,85,0.00,,,0.00,VWS V14.01,2013-02-10 02:32:00,
2013-02-09 21:34:00,29.3,25.4,29.29,WSW,247,5.8,5.8,85,0.00,,,0.00,VWS V14.01,2013-02-10 02:34:00,
2013-02-09 21:36:00,29.5,25.5,29.29,WSW,237,4.0,4.9,85,0.00,,,0.00,VWS V14.01,2013-02-10 02:36:00,
2013-02-09 21:37:00,29.5,25.5,29.29,SW,223,5.4,6.3,85,0.00,,,0.00,VWS V14.01,2013-02-10 02:37:00,
2013-02-09 21:39:00,29.5,25.5,29.29,SW,222,5.8,5.8,85,0.00,,,0.00,VWS V14.01,2013-02-10 02:39:00,
2013-02-09 21:41:00,29.5,25.5,29.29,SW,230,5.4,6.3,85,0.00,,,0.00,VWS V14.01,2013-02-10 02:41:00,
2013-02-09 21:42:00,29.5,25.5,29.29,SW,220,4.0,5.4,85,0.00,,,0.00,VWS V14.01,2013-02-10 02:42:00,
2013-02-09 21:44:00,29.5,25.5,29.29,SW,218,4.9,5.4,85,0.00,,,0.00,VWS V14.01,2013-02-10 02:44:00,
2013-02-09 21:47:00,29.5,25.5,29.29,SW,235,3.1,3.6,85,0.00,,,0.00,VWS V14.01,2013-02-10 02:47:00,
2013-02-09 21:49:00,29.7,25.7,29.29,SW,233,4.0,4.0,85,0.00,,,0.00,VWS V14.01,2013-02-10 02:49:00,
2013-02-09 21:52:00,29.7,25.7,29.29,WSW,251,4.0,4.0,85,0.00,,,0.00,VWS V14.01,2013-02-10 02:52:00,
2013-02-09 21:54:00,29.7,25.7,29.29,SW,232,4.9,4.9,85,0.00,,,0.00,VWS V14.01,2013-02-10 02:54:00,
2013-02-09 21:57:00,29.7,25.7,29.29,SW,229,8.1,8.1,85,0.00,,,0.00,VWS V14.01,2013-02-10 02:57:00,
2013-02-09 21:58:00,29.7,25.7,29.29,SW,216,5.4,8.1,85,0.00,,,0.00,VWS V14.01,2013-02-10 02:58:00,
2013-02-09 21:59:00,29.7,25.7,29.29,West,262,5.8,5.8,85,0.00,,,0.00,VWS V14.01,2013-02-10 02:59:00,
2013-02-09 22:02:00,29.8,25.9,29.29,SW,231,5.4,5.4,85,0.00,,,0.00,VWS V14.01,2013-02-10 03:02:00,
2013-02-09 22:03:00,29.8,25.9,29.29,SW,231,5.4,5.4,85,0.00,,,0.00,VWS V14.01,2013-02-10 03:03:00,
2013-02-09 22:04:00,29.8,25.9,29.29,SW,236,2.7,5.4,85,0.00,,,0.00,VWS V14.01,2013-02-10 03:04:00,
2013-02-09 22:07:00,29.8,25.9,29.29,West,259,3.6,5.8,85,0.00,,,0.00,VWS V14.01,2013-02-10 03:07:00,
2013-02-09 22:08:00,29.8,25.9,29.29,West,267,6.3,6.3,85,0.00,,,0.00,VWS V14.01,2013-02-10 03:08:00,
2013-02-09 22:09:00,30.0,26.1,29.29,West,261,4.9,5.4,85,0.00,,,0.00,VWS V14.01,2013-02-10 03:09:00,
2013-02-09 22:12:00,30.0,26.1,29.29,SW,236,4.0,5.4,85,0.00,,,0.00,VWS V14.01,2013-02-10 03:12:00,
2013-02-09 22:13:00,30.0,26.1,29.29,SW,230,3.1,5.4,85,0.00,,,0.00,VWS V14.01,2013-02-10 03:13:00,
2013-02-09 22:14:00,30.0,26.1,29.29,WSW,238,5.4,6.3,85,0.00,,,0.00,VWS V14.01,2013-02-10 03:14:00,
2013-02-09 22:18:00,30.0,26.1,29.29,WSW,247,4.0,5.8,85,0.00,,,0.00,VWS V14.01,2013-02-10 03:18:00,
2013-02-09 22:19:00,30.2,26.2,29.29,West,265,5.8,5.8,85,0.00,,,0.00,VWS V14.01,2013-02-10 03:19:00,
2013-02-09 22:23:00,30.2,26.2,29.29,SW,226,6.3,6.3,85,0.00,,,0.00,VWS V14.01,2013-02-10 03:23:00,
2013-02-09 22:25:00,30.2,26.2,29.29,SW,236,5.8,7.6,85,0.00,,,0.00,VWS V14.01,2013-02-10 03:25:00,
2013-02-09 22:28:00,30.2,26.2,29.29,SW,231,4.0,5.8,85,0.00,,,0.00,VWS V14.01,2013-02-10 03:28:00,
2013-02-09 22:30:00,30.4,26.1,29.29,SW,221,5.4,5.4,84,0.00,,,0.00,VWS V14.01,2013-02-10 03:30:00,
2013-02-09 22:33:00,30.4,26.1,29.29,SW,229,6.3,6.3,84,0.00,,,0.00,VWS V14.01,2013-02-10 03:33:00,
2013-02-09 22:35:00,30.6,26.3,29.26,WSW,238,4.0,5.8,84,0.00,,,0.00,VWS V14.01,2013-02-10 03:35:00,
2013-02-09 22:38:00,30.6,26.3,29.26,WSW,249,4.0,7.2,84,0.00,,,0.00,VWS V14.01,2013-02-10 03:38:00,
2013-02-09 22:40:00,30.7,26.5,29.26,SW,228,4.0,7.2,84,0.00,,,0.00,VWS V14.01,2013-02-10 03:40:00,
2013-02-09 22:43:00,30.7,26.5,29.26,SW,227,6.3,6.3,84,0.00,,,0.00,VWS V14.01,2013-02-10 03:43:00,
2013-02-09 22:44:00,30.7,26.5,29.26,SW,231,5.4,6.3,84,0.00,,,0.00,VWS V14.01,2013-02-10 03:44:00,
2013-02-09 22:45:00,30.9,26.4,29.26,SW,219,7.6,7.6,83,0.00,,,0.00,VWS V14.01,2013-02-10 03:45:00,
2013-02-09 22:48:00,30.9,26.4,29.26,SW,224,5.4,5.4,83,0.00,,,0.00,VWS V14.01,2013-02-10 03:48:00,
2013-02-09 22:49:00,30.9,26.4,29.26,West,269,6.3,6.3,83,0.00,,,0.00,VWS V14.01,2013-02-10 03:49:00,
2013-02-09 22:50:00,30.9,26.4,29.26,West,265,5.4,5.4,83,0.00,,,0.00,VWS V14.01,2013-02-10 03:50:00,
2013-02-09 22:53:00,30.9,26.4,29.26,WSW,237,6.3,6.3,83,0.00,,,0.00,VWS V14.01,2013-02-10 03:53:00,
2013-02-09 22:54:00,30.9,26.4,29.26,NW,318,3.6,6.3,83,0.00,,,0.00,VWS V14.01,2013-02-10 03:54:00,
2013-02-09 22:55:00,30.9,26.4,29.26,WSW,245,5.4,9.6,83,0.00,,,0.00,VWS V14.01,2013-02-10 03:55:00,
2013-02-09 22:58:00,30.9,26.1,29.26,WSW,237,4.0,5.8,82,0.00,,,0.00,VWS V14.01,2013-02-10 03:58:00,
2013-02-09 22:59:00,30.9,26.1,29.26,SW,236,5.4,5.8,82,0.00,,,0.00,VWS V14.01,2013-02-10 03:59:00,
2013-02-09 23:00:00,30.9,26.1,29.26,West,259,5.4,5.8,82,0.00,,,0.00,VWS V14.01,2013-02-10 04:00:00,
2013-02-09 23:03:00,30.9,26.1,29.26,WSW,240,7.6,7.6,82,0.00,,,0.00,VWS V14.01,2013-02-10 04:03:00,
2013-02-09 23:04:00,30.9,26.1,29.26,SW,233,3.6,7.6,82,0.00,,,0.00,VWS V14.01,2013-02-10 04:04:00,
2013-02-09 23:05:00,30.9,26.1,29.26,West,266,6.3,6.3,82,0.00,,,0.00,VWS V14.01,2013-02-10 04:05:00,
2013-02-09 23:08:00,30.9,26.1,29.26,WSW,246,5.8,6.3,82,0.00,,,0.00,VWS V14.01,2013-02-10 04:08:00,
2013-02-09 23:09:00,30.9,26.1,29.26,WSW,247,5.4,6.3,82,0.00,,,0.00,VWS V14.01,2013-02-10 04:09:00,
2013-02-09 23:10:00,30.9,26.1,29.26,West,262,6.3,6.3,82,0.00,,,0.00,VWS V14.01,2013-02-10 04:10:00,
2013-02-09 23:11:00,30.9,26.1,29.26,WSW,237,7.6,8.3,82,0.00,,,0.00,VWS V14.01,2013-02-10 04:11:00,
2013-02-09 23:14:00,30.9,26.1,29.26,West,265,7.6,8.3,82,0.00,,,0.00,VWS V14.01,2013-02-10 04:14:00,
2013-02-09 23:15:00,30.9,26.1,29.26,SW,217,5.8,7.6,82,0.00,,,0.00,VWS V14.01,2013-02-10 04:15:00,
2013-02-09 23:16:00,30.9,26.1,29.26,WSW,252,5.4,8.3,82,0.00,,,0.00,VWS V14.01,2013-02-10 04:16:00,
2013-02-09 23:19:00,31.1,26.0,29.26,WSW,247,5.4,6.3,81,0.00,,,0.00,VWS V14.01,2013-02-10 04:19:00,
2013-02-09 23:20:00,30.9,25.8,29.26,WSW,248,4.9,5.4,81,0.00,,,0.00,VWS V14.01,2013-02-10 04:20:00,
2013-02-09 23:21:00,30.9,25.8,29.23,WSW,249,5.8,5.8,81,0.00,,,0.00,VWS V14.01,2013-02-10 04:21:00,
2013-02-09 23:24:00,30.9,25.8,29.23,SW,231,3.6,5.4,81,0.00,,,0.00,VWS V14.01,2013-02-10 04:24:00,
2013-02-09 23:25:00,30.9,25.8,29.23,WSW,256,3.6,6.3,81,0.00,,,0.00,VWS V14.01,2013-02-10 04:25:00,
2013-02-09 23:26:00,30.9,25.8,29.23,WSW,248,4.0,4.0,81,0.00,,,0.00,VWS V14.01,2013-02-10 04:26:00,
2013-02-09 23:29:00,30.9,25.8,29.23,WSW,246,3.1,4.0,81,0.00,,,0.00,VWS V14.01,2013-02-10 04:29:00,
2013-02-09 23:30:00,30.9,25.8,29.23,WSW,239,6.3,6.3,81,0.00,,,0.00,VWS V14.01,2013-02-10 04:30:00,
2013-02-09 23:31:00,30.9,25.8,29.23,West,266,3.6,6.3,81,0.00,,,0.00,VWS V14.01,2013-02-10 04:31:00,
2013-02-09 23:34:00,30.7,25.6,29.23,WSW,250,4.0,4.0,81,0.00,,,0.00,VWS V14.01,2013-02-10 04:34:00,
2013-02-09 23:35:00,30.7,25.6,29.23,WSW,238,6.3,6.3,81,0.00,,,0.00,VWS V14.01,2013-02-10 04:35:00,
2013-02-09 23:36:00,30.7,25.6,29.23,West,265,8.1,8.1,81,0.00,,,0.00,VWS V14.01,2013-02-10 04:36:00,
2013-02-09 23:39:00,30.7,25.6,29.23,WSW,248,5.8,5.8,81,0.00,,,0.00,VWS V14.01,2013-02-10 04:39:00,
2013-02-09 23:40:00,30.7,25.6,29.23,WSW,240,6.3,6.3,81,0.00,,,0.00,VWS V14.01,2013-02-10 04:40:00,
2013-02-09 23:41:00,30.7,25.6,29.23,SW,235,5.4,6.3,81,0.00,,,0.00,VWS V14.01,2013-02-10 04:41:00,
2013-02-09 23:44:00,30.7,25.6,29.23,SW,236,5.8,6.3,81,0.00,,,0.00,VWS V14.01,2013-02-10 04:44:00,
2013-02-09 23:45:00,30.7,25.6,29.23,WSW,239,5.4,6.3,81,0.00,,,0.00,VWS V14.01,2013-02-10 04:45:00,
2013-02-09 23:46:00,30.7,25.6,29.23,WSW,240,5.4,5.8,81,0.00,,,0.00,VWS V14.01,2013-02-10 04:46:00,
2013-02-09 23:50:00,30.6,25.1,29.23,SW,230,7.6,7.6,80,0.00,,,0.00,VWS V14.01,2013-02-10 04:50:00,
2013-02-09 23:51:00,30.6,25.1,29.23,WSW,238,8.7,8.7,80,0.00,,,0.00,VWS V14.01,2013-02-10 04:51:00,
2013-02-09 23:55:00,30.6,25.1,29.23,WSW,253,3.6,4.9,80,0.00,,,0.00,VWS V14.01,2013-02-10 04:55:00,
2013-02-09 23:56:00,30.6,25.1,29.23,WSW,240,5.4,6.3,80,0.00,,,0.00,VWS V14.01,2013-02-10 04:56:00,